createdAt,value
2018-11-28T00:00:33.270Z,950.71
2018-11-28T00:01:33.080Z,950.71
2018-11-28T00:02:32.961Z,950.68
2018-11-28T00:03:32.863Z,950.71
2018-11-28T00:04:32.750Z,950.70
2018-11-28T00:05:32.643Z,950.67
2018-11-28T00:06:32.561Z,950.73
2018-11-28T00:07:32.546Z,950.74
2018-11-28T00:08:32.336Z,950.77
2018-11-28T00:09:32.232Z,950.72
2018-11-28T00:10:32.126Z,950.72
2018-11-28T00:11:32.039Z,950.70
2018-11-28T00:12:31.922Z,950.74
2018-11-28T00:13:31.817Z,950.79
2018-11-28T00:14:31.824Z,950.82
2018-11-28T00:15:31.609Z,950.85
2018-11-28T00:16:31.521Z,950.79
2018-11-28T00:17:31.400Z,950.82
2018-11-28T00:18:31.298Z,950.85
2018-11-28T00:19:31.193Z,950.85
2018-11-28T00:20:31.089Z,950.90
2018-11-28T00:21:31.105Z,950.84
2018-11-28T00:22:30.881Z,950.82
2018-11-28T00:23:30.777Z,950.84
2018-11-28T00:24:30.674Z,950.78
2018-11-28T00:25:30.575Z,950.77
2018-11-28T00:26:30.482Z,950.79
2018-11-28T00:27:30.362Z,950.78
2018-11-28T00:28:30.360Z,950.80
2018-11-28T00:29:30.156Z,950.78
2018-11-28T00:30:30.050Z,950.83
2018-11-28T00:31:29.964Z,950.80
2018-11-28T00:32:29.844Z,950.76
2018-11-28T00:33:29.739Z,950.74
2018-11-28T00:34:29.636Z,950.73
2018-11-28T00:35:29.539Z,950.72
2018-11-28T00:36:29.445Z,950.73
2018-11-28T00:37:29.325Z,950.73
2018-11-28T00:38:29.219Z,950.72
2018-11-28T00:39:29.114Z,950.72
2018-11-28T00:40:29.013Z,950.76
2018-11-28T00:41:28.929Z,950.78
2018-11-28T00:42:28.803Z,950.75
2018-11-28T00:43:28.701Z,950.79
2018-11-28T00:44:28.597Z,950.81
2018-11-28T00:45:28.497Z,950.82
2018-11-28T00:46:28.409Z,950.85
2018-11-28T00:47:28.284Z,950.86
2018-11-28T00:48:28.183Z,950.92
2018-11-28T00:49:28.080Z,950.85
2018-11-28T00:50:27.972Z,950.87
2018-11-28T00:51:27.914Z,950.85
2018-11-28T00:52:27.765Z,950.85
2018-11-28T00:53:27.661Z,950.86
2018-11-28T00:54:27.557Z,950.88
2018-11-28T00:55:27.455Z,950.90
2018-11-28T00:56:27.366Z,950.91
2018-11-28T00:57:27.246Z,950.91
2018-11-28T00:58:27.141Z,950.88
2018-11-28T00:59:27.038Z,950.91
2018-11-28T01:00:26.937Z,950.95
2018-11-28T01:01:26.849Z,950.93
2018-11-28T01:02:26.727Z,950.93
2018-11-28T01:03:26.623Z,950.91
2018-11-28T01:04:26.519Z,950.89
2018-11-28T01:05:26.419Z,950.92
2018-11-28T01:06:26.328Z,950.90
2018-11-28T01:07:26.212Z,950.89
2018-11-28T01:08:26.105Z,950.92
2018-11-28T01:09:26.005Z,950.95
2018-11-28T01:10:25.908Z,950.95
2018-11-28T01:11:25.810Z,950.93
2018-11-28T01:12:25.689Z,950.96
2018-11-28T01:13:25.585Z,951.01
2018-11-28T01:14:25.480Z,951.01
2018-11-28T01:15:25.376Z,951.03
2018-11-28T01:16:25.294Z,951.02
2018-11-28T01:17:25.177Z,951.07
2018-11-28T01:18:25.065Z,951.02
2018-11-28T01:19:24.962Z,951.02
2018-11-28T01:20:24.857Z,951.06
2018-11-28T01:21:24.756Z,951.06
2018-11-28T01:22:24.666Z,951.06
2018-11-28T01:23:24.545Z,951.06
2018-11-28T01:24:24.442Z,951.06
2018-11-28T01:25:24.342Z,951.06
2018-11-28T01:26:24.241Z,951.11
2018-11-28T01:27:24.154Z,951.13
2018-11-28T01:28:24.029Z,951.11
2018-11-28T01:29:23.923Z,951.14
2018-11-28T01:30:23.824Z,951.09
2018-11-28T01:31:23.717Z,951.09
2018-11-28T01:32:23.632Z,951.12
2018-11-28T01:33:23.507Z,951.12
2018-11-28T01:34:23.404Z,951.13
2018-11-28T01:35:23.302Z,951.10
2018-11-28T01:36:23.196Z,951.12
2018-11-28T01:37:23.126Z,951.16
2018-11-28T01:38:22.987Z,951.18
2018-11-28T01:39:22.884Z,951.17
2018-11-28T01:40:22.779Z,951.19
2018-11-28T01:41:22.682Z,951.16
2018-11-28T01:42:22.592Z,951.18
2018-11-28T01:43:22.469Z,951.20
2018-11-28T01:44:22.367Z,951.19
2018-11-28T01:45:22.261Z,951.20
2018-11-28T01:46:22.458Z,951.16
2018-11-28T01:47:22.073Z,951.16
2018-11-28T01:48:21.951Z,951.14
2018-11-28T01:49:21.849Z,951.15
2018-11-28T01:50:21.747Z,951.18
2018-11-28T01:51:21.641Z,951.13
2018-11-28T01:52:21.550Z,951.19
2018-11-28T01:53:21.432Z,951.19
2018-11-28T01:54:21.357Z,951.20
2018-11-28T01:55:21.227Z,951.23
2018-11-28T01:56:21.120Z,951.22
2018-11-28T01:57:21.038Z,951.22
2018-11-28T01:58:20.913Z,951.21
2018-11-28T01:59:20.809Z,951.19
2018-11-28T02:00:20.709Z,951.19
2018-11-28T02:01:20.598Z,951.18
2018-11-28T02:02:20.513Z,951.19
2018-11-28T02:03:20.428Z,951.16
2018-11-28T02:04:20.291Z,951.21
2018-11-28T02:05:20.194Z,951.19
2018-11-28T02:06:20.133Z,951.18
2018-11-28T02:07:20.000Z,951.22
2018-11-28T02:08:19.876Z,951.24
2018-11-28T02:09:19.772Z,951.25
2018-11-28T02:10:19.667Z,951.27
2018-11-28T02:11:19.567Z,951.27
2018-11-28T02:12:19.477Z,951.27
2018-11-28T02:13:19.461Z,951.27
2018-11-28T02:14:19.253Z,951.29
2018-11-28T02:15:19.151Z,951.25
2018-11-28T02:16:19.047Z,951.29
2018-11-28T02:17:18.957Z,951.27
2018-11-28T02:18:18.838Z,951.25
2018-11-28T02:19:18.734Z,951.25
2018-11-28T02:20:18.731Z,951.28
2018-11-28T02:21:18.527Z,951.28
2018-11-28T02:22:18.441Z,951.33
2018-11-28T02:23:18.322Z,951.34
2018-11-28T02:24:18.215Z,951.37
2018-11-28T02:25:18.112Z,951.32
2018-11-28T02:26:18.009Z,951.33
2018-11-28T02:27:18.032Z,951.34
2018-11-28T02:28:17.801Z,951.37
2018-11-28T02:29:17.700Z,951.38
2018-11-28T02:30:17.615Z,951.38
2018-11-28T02:31:17.493Z,951.39
2018-11-28T02:32:17.403Z,951.40
2018-11-28T02:33:17.282Z,951.35
2018-11-28T02:34:17.286Z,951.36
2018-11-28T02:35:17.077Z,951.36
2018-11-28T02:36:16.973Z,951.37
2018-11-28T02:37:16.884Z,951.33
2018-11-28T02:38:16.763Z,951.32
2018-11-28T02:39:16.659Z,951.37
2018-11-28T02:40:16.566Z,951.38
2018-11-28T02:41:16.557Z,951.38
2018-11-28T02:42:16.364Z,951.40
2018-11-28T02:43:16.245Z,951.38
2018-11-28T02:44:16.144Z,951.37
2018-11-28T02:45:16.037Z,951.38
2018-11-28T02:46:15.932Z,951.38
2018-11-28T02:47:15.846Z,951.36
2018-11-28T02:48:15.829Z,951.43
2018-11-28T02:49:15.626Z,951.42
2018-11-28T02:50:15.521Z,951.44
2018-11-28T02:51:15.429Z,951.44
2018-11-28T02:52:15.330Z,951.46
2018-11-28T02:53:15.209Z,951.46
2018-11-28T02:54:15.105Z,951.45
2018-11-28T02:55:15.102Z,951.47
2018-11-28T02:56:14.897Z,951.47
2018-11-28T02:57:14.812Z,951.48
2018-11-28T02:58:14.689Z,951.52
2018-11-28T02:59:14.584Z,951.51
2018-11-28T03:00:14.508Z,951.51
2018-11-28T03:01:14.378Z,951.49
2018-11-28T03:02:14.389Z,951.51
2018-11-28T03:03:14.170Z,951.55
2018-11-28T03:04:14.069Z,951.63
2018-11-28T03:05:13.962Z,951.61
2018-11-28T03:06:13.858Z,951.60
2018-11-28T03:07:13.759Z,951.61
2018-11-28T03:08:13.667Z,951.64
2018-11-28T03:09:13.661Z,951.62
2018-11-28T03:10:13.443Z,951.60
2018-11-28T03:11:13.343Z,951.63
2018-11-28T03:12:13.236Z,951.61
2018-11-28T03:13:13.148Z,951.64
2018-11-28T03:14:13.028Z,951.65
2018-11-28T03:15:12.926Z,951.66
2018-11-28T03:16:12.920Z,951.61
2018-11-28T03:17:12.720Z,951.64
2018-11-28T03:18:12.645Z,951.65
2018-11-28T03:19:12.507Z,951.62
2018-11-28T03:20:12.403Z,951.64
2018-11-28T03:21:12.299Z,951.65
2018-11-28T03:22:12.311Z,951.72
2018-11-28T03:23:12.108Z,951.68
2018-11-28T03:24:11.987Z,951.65
2018-11-28T03:25:11.887Z,951.68
2018-11-28T03:26:11.781Z,951.69
2018-11-28T03:27:12.245Z,951.68
2018-11-28T03:28:11.591Z,951.65
2018-11-28T03:29:11.470Z,951.71
2018-11-28T03:30:11.470Z,951.73
2018-11-28T03:31:11.282Z,951.79
2018-11-28T03:32:11.167Z,951.80
2018-11-28T03:33:11.072Z,951.73
2018-11-28T03:34:10.951Z,951.76
2018-11-28T03:35:10.847Z,951.69
2018-11-28T03:36:10.889Z,951.70
2018-11-28T03:37:10.638Z,951.69
2018-11-28T03:38:10.552Z,951.72
2018-11-28T03:39:10.432Z,951.66
2018-11-28T03:40:10.332Z,951.68
2018-11-28T03:41:10.225Z,951.72
2018-11-28T03:42:10.120Z,951.72
2018-11-28T03:43:10.038Z,951.73
2018-11-28T03:44:09.911Z,951.77
2018-11-28T03:45:09.810Z,951.76
2018-11-28T03:46:09.703Z,951.77
2018-11-28T03:47:09.600Z,951.77
2018-11-28T03:48:09.511Z,951.77
2018-11-28T03:49:09.391Z,951.79
2018-11-28T03:50:09.289Z,951.77
2018-11-28T03:51:09.183Z,951.75
2018-11-28T03:52:09.081Z,951.77
2018-11-28T03:53:08.992Z,951.72
2018-11-28T03:54:08.872Z,951.78
2018-11-28T03:55:08.790Z,951.84
2018-11-28T03:56:08.666Z,951.84
2018-11-28T03:57:08.560Z,951.82
2018-11-28T03:58:08.469Z,951.84
2018-11-28T03:59:08.350Z,951.81
2018-11-28T04:00:08.251Z,951.82
2018-11-28T04:01:08.145Z,951.80
2018-11-28T04:02:08.038Z,951.75
2018-11-28T04:03:07.957Z,951.77
2018-11-28T04:04:07.892Z,951.80
2018-11-28T04:05:07.725Z,951.80
2018-11-28T04:06:07.619Z,951.88
2018-11-28T04:07:07.517Z,951.81
2018-11-28T04:08:07.428Z,951.82
2018-11-28T04:09:07.309Z,951.88
2018-11-28T04:10:07.208Z,951.87
2018-11-28T04:11:07.099Z,951.84
2018-11-28T04:12:07.000Z,951.82
2018-11-28T04:13:06.909Z,951.81
2018-11-28T04:14:06.788Z,951.80
2018-11-28T04:15:06.684Z,951.81
2018-11-28T04:16:06.579Z,951.81
2018-11-28T04:17:06.475Z,951.79
2018-11-28T04:18:06.387Z,951.80
2018-11-28T04:19:06.269Z,951.85
2018-11-28T04:20:06.164Z,951.80
2018-11-28T04:21:06.060Z,951.78
2018-11-28T04:22:05.967Z,951.79
2018-11-28T04:23:05.868Z,951.75
2018-11-28T04:24:05.747Z,951.72
2018-11-28T04:25:05.646Z,951.78
2018-11-28T04:26:05.536Z,951.80
2018-11-28T04:27:05.433Z,951.78
2018-11-28T04:28:05.348Z,951.76
2018-11-28T04:29:05.230Z,951.80
2018-11-28T04:30:05.125Z,951.81
2018-11-28T04:31:05.017Z,951.84
2018-11-28T04:32:04.912Z,951.90
2018-11-28T04:33:04.835Z,951.88
2018-11-28T04:34:04.706Z,951.89
2018-11-28T04:35:04.600Z,951.85
2018-11-28T04:36:04.497Z,951.90
2018-11-28T04:37:04.407Z,951.89
2018-11-28T04:38:04.301Z,951.86
2018-11-28T04:39:04.180Z,951.90
2018-11-28T04:40:04.092Z,951.90
2018-11-28T04:41:03.974Z,951.89
2018-11-28T04:42:03.870Z,951.90
2018-11-28T04:43:03.781Z,951.92
2018-11-28T04:44:03.661Z,951.90
2018-11-28T04:45:03.556Z,951.88
2018-11-28T04:46:03.454Z,951.95
2018-11-28T04:47:03.346Z,951.93
2018-11-28T04:48:03.244Z,951.95
2018-11-28T04:49:03.153Z,951.99
2018-11-28T04:50:03.031Z,952.00
2018-11-28T04:51:02.926Z,952.03
2018-11-28T04:52:02.822Z,952.02
2018-11-28T04:53:02.738Z,952.03
2018-11-28T04:54:02.617Z,952.03
2018-11-28T04:55:02.511Z,951.99
2018-11-28T04:56:02.408Z,952.02
2018-11-28T04:57:02.300Z,951.99
2018-11-28T04:58:02.197Z,952.00
2018-11-28T04:59:02.122Z,952.00
2018-11-28T05:00:02.098Z,952.02
2018-11-28T05:01:01.880Z,952.03
2018-11-28T05:02:01.772Z,952.02
2018-11-28T05:03:01.675Z,952.00
2018-11-28T05:04:01.582Z,951.96
2018-11-28T05:05:01.461Z,951.98
2018-11-28T05:06:01.355Z,951.99
2018-11-28T05:07:01.348Z,951.97
2018-11-28T05:08:01.148Z,951.97
2018-11-28T05:09:01.057Z,951.98
2018-11-28T05:10:00.934Z,951.97
2018-11-28T05:11:00.831Z,951.97
2018-11-28T05:12:00.723Z,951.96
2018-11-28T05:13:00.621Z,952.01
2018-11-28T05:14:00.632Z,951.94
2018-11-28T05:15:00.407Z,951.97
2018-11-28T05:16:00.303Z,951.92
2018-11-28T05:17:00.197Z,951.98
2018-11-28T05:18:00.138Z,951.90
2018-11-28T05:19:00.004Z,951.94
2018-11-28T05:19:59.883Z,951.98
2018-11-28T05:20:59.881Z,951.99
2018-11-28T05:21:59.670Z,952.01
2018-11-28T05:22:59.563Z,952.01
2018-11-28T05:23:59.481Z,951.98
2018-11-28T05:24:59.353Z,952.02
2018-11-28T05:25:59.251Z,952.05
2018-11-28T05:26:59.140Z,952.04
2018-11-28T05:27:59.139Z,951.96
2018-11-28T05:28:58.946Z,951.97
2018-11-28T05:29:58.825Z,951.96
2018-11-28T05:30:58.722Z,951.97
2018-11-28T05:31:58.613Z,951.94
2018-11-28T05:32:58.516Z,951.98
2018-11-28T05:33:58.418Z,951.94
2018-11-28T05:34:58.406Z,951.94
2018-11-28T05:35:58.193Z,952.01
2018-11-28T05:36:58.089Z,951.95
2018-11-28T05:37:57.980Z,951.93
2018-11-28T05:38:57.890Z,951.89
2018-11-28T05:39:57.770Z,951.88
2018-11-28T05:40:57.665Z,951.91
2018-11-28T05:41:57.672Z,951.89
2018-11-28T05:42:57.450Z,951.85
2018-11-28T05:43:57.365Z,951.93
2018-11-28T05:44:57.243Z,951.93
2018-11-28T05:45:57.137Z,951.91
2018-11-28T05:46:57.027Z,951.95
2018-11-28T05:47:56.923Z,951.91
2018-11-28T05:48:56.944Z,951.85
2018-11-28T05:49:56.712Z,951.86
2018-11-28T05:50:56.604Z,951.90
2018-11-28T05:51:56.499Z,951.90
2018-11-28T05:52:56.394Z,951.93
2018-11-28T05:53:56.301Z,951.95
2018-11-28T05:54:56.183Z,951.94
2018-11-28T05:55:56.178Z,951.95
2018-11-28T05:56:55.967Z,951.98
2018-11-28T05:57:55.863Z,951.97
2018-11-28T05:58:55.775Z,951.98
2018-11-28T05:59:55.655Z,952.00
2018-11-28T06:00:55.547Z,951.99
2018-11-28T06:01:55.581Z,952.09
2018-11-28T06:02:55.333Z,952.13
2018-11-28T06:03:55.243Z,952.09
2018-11-28T06:04:55.121Z,952.12
2018-11-28T06:05:55.016Z,952.14
2018-11-28T06:06:54.917Z,952.15
2018-11-28T06:07:54.810Z,952.23
2018-11-28T06:08:54.715Z,952.18
2018-11-28T06:09:54.591Z,952.18
2018-11-28T06:10:54.499Z,952.18
2018-11-28T06:11:54.381Z,952.18
2018-11-28T06:12:54.277Z,952.16
2018-11-28T06:13:54.185Z,952.23
2018-11-28T06:14:54.062Z,952.23
2018-11-28T06:15:53.960Z,952.24
2018-11-28T06:16:53.852Z,952.20
2018-11-28T06:17:53.747Z,952.22
2018-11-28T06:18:53.659Z,952.19
2018-11-28T06:19:53.533Z,952.30
2018-11-28T06:20:53.427Z,952.27
2018-11-28T06:21:53.321Z,952.27
2018-11-28T06:22:53.214Z,952.27
2018-11-28T06:23:53.126Z,952.25
2018-11-28T06:24:53.006Z,952.25
2018-11-28T06:25:52.899Z,952.19
2018-11-28T06:26:52.796Z,952.26
2018-11-28T06:27:52.693Z,952.22
2018-11-28T06:28:52.598Z,952.22
2018-11-28T06:29:52.581Z,952.23
2018-11-28T06:30:52.367Z,952.21
2018-11-28T06:31:52.263Z,952.22
2018-11-28T06:32:52.157Z,952.28
2018-11-28T06:33:52.074Z,952.26
2018-11-28T06:34:51.947Z,952.28
2018-11-28T06:35:51.846Z,952.30
2018-11-28T06:36:51.856Z,952.33
2018-11-28T06:37:51.627Z,952.38
2018-11-28T06:38:51.522Z,952.28
2018-11-28T06:39:51.433Z,952.35
2018-11-28T06:40:51.311Z,952.39
2018-11-28T06:41:51.204Z,952.42
2018-11-28T06:42:51.099Z,952.47
2018-11-28T06:43:51.104Z,952.40
2018-11-28T06:44:50.904Z,952.38
2018-11-28T06:45:50.786Z,952.39
2018-11-28T06:46:50.674Z,952.37
2018-11-28T06:47:50.571Z,952.35
2018-11-28T06:48:50.469Z,952.40
2018-11-28T06:49:50.378Z,952.38
2018-11-28T06:50:50.253Z,952.50
2018-11-28T06:51:50.446Z,952.48
2018-11-28T06:52:50.048Z,952.66
2018-11-28T06:53:49.938Z,952.49
2018-11-28T06:54:49.846Z,952.47
2018-11-28T06:55:49.724Z,952.51
2018-11-28T06:56:49.620Z,952.53
2018-11-28T06:57:49.512Z,952.55
2018-11-28T06:58:49.513Z,952.54
2018-11-28T06:59:49.320Z,952.58
2018-11-28T07:00:49.196Z,952.59
2018-11-28T07:01:49.090Z,952.60
2018-11-28T07:02:48.985Z,952.59
2018-11-28T07:03:48.880Z,952.57
2018-11-28T07:04:48.789Z,952.61
2018-11-28T07:05:48.784Z,952.65
2018-11-28T07:06:48.561Z,952.66
2018-11-28T07:07:48.456Z,952.68
2018-11-28T07:08:48.352Z,952.68
2018-11-28T07:09:48.261Z,952.69
2018-11-28T07:10:48.802Z,952.74
2018-11-28T07:11:48.039Z,952.76
2018-11-28T07:12:48.044Z,952.78
2018-11-28T07:13:47.822Z,952.81
2018-11-28T07:14:47.734Z,952.80
2018-11-28T07:15:47.610Z,952.86
2018-11-28T07:16:47.505Z,952.82
2018-11-28T07:17:47.399Z,952.80
2018-11-28T07:18:47.294Z,952.81
2018-11-28T07:19:47.305Z,952.82
2018-11-28T07:20:47.082Z,952.78
2018-11-28T07:21:46.978Z,952.85
2018-11-28T07:22:46.872Z,952.81
2018-11-28T07:23:46.766Z,952.83
2018-11-28T07:24:46.677Z,952.90
2018-11-28T07:25:46.557Z,952.89
2018-11-28T07:26:46.558Z,952.92
2018-11-28T07:27:46.344Z,952.93
2018-11-28T07:28:46.240Z,952.95
2018-11-28T07:29:46.150Z,952.95
2018-11-28T07:30:46.028Z,952.93
2018-11-28T07:31:45.922Z,952.94
2018-11-28T07:32:45.823Z,953.02
2018-11-28T07:33:45.817Z,952.94
2018-11-28T07:34:45.624Z,952.87
2018-11-28T07:35:45.507Z,953.03
2018-11-28T07:36:45.397Z,952.95
2018-11-28T07:37:45.293Z,952.96
2018-11-28T07:38:45.187Z,952.94
2018-11-28T07:39:45.098Z,952.98
2018-11-28T07:40:45.099Z,952.91
2018-11-28T07:41:44.869Z,952.91
2018-11-28T07:42:44.763Z,952.98
2018-11-28T07:43:44.658Z,952.97
2018-11-28T07:44:44.571Z,952.97
2018-11-28T07:45:44.448Z,952.93
2018-11-28T07:46:44.343Z,952.98
2018-11-28T07:47:44.340Z,952.98
2018-11-28T07:48:44.139Z,952.99
2018-11-28T07:49:44.043Z,953.03
2018-11-28T07:50:43.936Z,953.10
2018-11-28T07:51:43.822Z,953.08
2018-11-28T07:52:43.712Z,953.11
2018-11-28T07:53:43.606Z,953.13
2018-11-28T07:54:43.518Z,953.10
2018-11-28T07:55:43.399Z,953.14
2018-11-28T07:56:43.293Z,953.10
2018-11-28T07:57:43.187Z,953.17
2018-11-28T07:58:43.081Z,953.06
2018-11-28T07:59:43.005Z,953.08
2018-11-28T08:00:42.872Z,953.07
2018-11-28T08:01:42.765Z,953.12
2018-11-28T08:02:42.660Z,953.06
2018-11-28T08:03:42.557Z,953.08
2018-11-28T08:04:42.467Z,953.06
2018-11-28T08:05:42.345Z,953.10
2018-11-28T08:06:42.241Z,953.10
2018-11-28T08:07:42.136Z,953.10
2018-11-28T08:08:42.029Z,953.11
2018-11-28T08:09:41.942Z,953.25
2018-11-28T08:10:41.821Z,953.15
2018-11-28T08:11:41.715Z,953.23
2018-11-28T08:12:41.611Z,953.23
2018-11-28T08:13:41.507Z,953.24
2018-11-28T08:14:41.420Z,953.22
2018-11-28T08:15:41.295Z,953.25
2018-11-28T08:16:41.191Z,953.26
2018-11-28T08:17:41.085Z,953.30
2018-11-28T08:18:42.146Z,953.29
2018-11-28T08:19:40.894Z,953.30
2018-11-28T08:20:40.774Z,953.29
2018-11-28T08:21:40.671Z,953.40
2018-11-28T08:22:40.561Z,953.42
2018-11-28T08:23:40.456Z,953.38
2018-11-28T08:24:40.434Z,953.39
2018-11-28T08:25:40.267Z,953.38
2018-11-28T08:26:40.142Z,953.33
2018-11-28T08:27:40.133Z,953.31
2018-11-28T08:28:39.933Z,953.34
2018-11-28T08:29:39.832Z,953.31
2018-11-28T08:30:39.741Z,953.45
2018-11-28T08:31:39.617Z,953.30
2018-11-28T08:32:39.512Z,953.43
2018-11-28T08:33:39.410Z,953.39
2018-11-28T08:34:39.322Z,953.30
2018-11-28T08:35:39.215Z,953.31
2018-11-28T08:36:39.092Z,953.35
2018-11-28T08:37:38.986Z,953.32
2018-11-28T08:38:38.899Z,953.35
2018-11-28T08:39:38.781Z,953.33
2018-11-28T08:40:38.677Z,953.33
2018-11-28T08:41:38.567Z,953.45
2018-11-28T08:42:38.467Z,953.37
2018-11-28T08:43:38.372Z,953.38
2018-11-28T08:44:38.270Z,953.42
2018-11-28T08:45:38.150Z,953.41
2018-11-28T08:46:38.042Z,953.42
2018-11-28T08:47:37.937Z,953.42
2018-11-28T08:48:37.836Z,953.46
2018-11-28T08:49:37.745Z,953.44
2018-11-28T08:50:37.629Z,953.55
2018-11-28T08:51:37.521Z,953.56
2018-11-28T08:52:37.414Z,953.52
2018-11-28T08:53:37.336Z,953.57
2018-11-28T08:54:37.219Z,953.48
2018-11-28T08:55:37.099Z,953.53
2018-11-28T08:56:37.103Z,953.46
2018-11-28T08:57:36.893Z,953.44
2018-11-28T08:58:36.783Z,953.54
2018-11-28T08:59:36.696Z,953.63
2018-11-28T09:00:36.575Z,953.56
2018-11-28T09:01:36.469Z,953.57
2018-11-28T09:02:36.363Z,953.61
2018-11-28T09:03:36.258Z,953.58
2018-11-28T09:04:36.172Z,953.60
2018-11-28T09:05:36.052Z,953.57
2018-11-28T09:06:35.946Z,953.57
2018-11-28T09:07:35.840Z,953.55
2018-11-28T09:08:35.734Z,953.61
2018-11-28T09:09:35.646Z,953.68
2018-11-28T09:10:35.633Z,953.61
2018-11-28T09:11:35.421Z,953.70
2018-11-28T09:12:35.317Z,953.64
2018-11-28T09:13:35.210Z,953.70
2018-11-28T09:14:35.133Z,953.67
2018-11-28T09:15:35.001Z,953.72
2018-11-28T09:16:34.903Z,953.60
2018-11-28T09:17:34.897Z,953.65
2018-11-28T09:18:34.683Z,953.67
2018-11-28T09:19:34.605Z,953.62
2018-11-28T09:20:34.485Z,953.68
2018-11-28T09:21:34.376Z,953.65
2018-11-28T09:22:34.267Z,953.71
2018-11-28T09:23:34.163Z,953.63
2018-11-28T09:24:34.178Z,953.77
2018-11-28T09:25:33.954Z,953.79
2018-11-28T09:26:33.848Z,953.80
2018-11-28T09:27:33.789Z,953.84
2018-11-28T09:28:33.642Z,953.78
2018-11-28T09:29:33.549Z,953.82
2018-11-28T09:30:33.429Z,953.75
2018-11-28T09:31:33.426Z,953.86
2018-11-28T09:32:33.218Z,953.85
2018-11-28T09:33:33.115Z,953.81
2018-11-28T09:34:33.025Z,953.79
2018-11-28T09:35:32.905Z,953.82
2018-11-28T09:36:32.798Z,953.84
2018-11-28T09:37:32.697Z,953.90
2018-11-28T09:38:32.694Z,953.80
2018-11-28T09:39:32.503Z,953.77
2018-11-28T09:40:32.380Z,953.80
2018-11-28T09:41:32.273Z,953.78
2018-11-28T09:42:32.171Z,953.77
2018-11-28T09:43:32.067Z,953.82
2018-11-28T09:44:31.980Z,953.85
2018-11-28T09:45:31.968Z,953.85
2018-11-28T09:46:31.752Z,953.90
2018-11-28T09:47:31.659Z,953.85
2018-11-28T09:48:31.544Z,953.88
2018-11-28T09:49:31.453Z,953.84
2018-11-28T09:50:31.338Z,953.84
2018-11-28T09:51:31.235Z,953.85
2018-11-28T09:52:31.229Z,953.90
2018-11-28T09:53:31.026Z,953.97
2018-11-28T09:54:30.932Z,953.89
2018-11-28T09:55:30.810Z,953.96
2018-11-28T09:56:30.710Z,953.96
2018-11-28T09:57:30.610Z,953.98
2018-11-28T09:58:30.502Z,953.93
2018-11-28T09:59:30.514Z,953.93
2018-11-28T10:00:30.296Z,954.03
2018-11-28T10:01:30.189Z,953.95
2018-11-28T10:02:30.080Z,954.13
2018-11-28T10:03:29.976Z,953.94
2018-11-28T10:04:29.887Z,953.98
2018-11-28T10:05:29.767Z,953.95
2018-11-28T10:06:29.783Z,953.99
2018-11-28T10:07:29.558Z,953.94
2018-11-28T10:08:29.454Z,954.00
2018-11-28T10:09:29.352Z,953.97
2018-11-28T10:10:29.261Z,953.91
2018-11-28T10:11:29.141Z,954.03
2018-11-28T10:12:29.037Z,953.94
2018-11-28T10:13:29.032Z,953.93
2018-11-28T10:14:28.829Z,953.99
2018-11-28T10:15:28.750Z,953.96
2018-11-28T10:16:28.619Z,953.98
2018-11-28T10:17:28.514Z,953.94
2018-11-28T10:18:28.410Z,953.85
2018-11-28T10:19:28.407Z,953.98
2018-11-28T10:20:28.220Z,953.85
2018-11-28T10:21:28.390Z,953.90
2018-11-28T10:22:27.992Z,953.85
2018-11-28T10:23:27.888Z,953.94
2018-11-28T10:24:27.802Z,953.91
2018-11-28T10:25:27.694Z,953.90
2018-11-28T10:26:27.575Z,953.84
2018-11-28T10:27:27.478Z,953.86
2018-11-28T10:28:27.366Z,953.85
2018-11-28T10:29:27.263Z,953.83
2018-11-28T10:30:27.178Z,953.90
2018-11-28T10:31:27.056Z,953.96
2018-11-28T10:32:26.949Z,953.90
2018-11-28T10:33:26.860Z,953.90
2018-11-28T10:34:29.511Z,953.92
2018-11-28T10:35:26.653Z,953.86
2018-11-28T10:36:26.529Z,953.80
2018-11-28T10:37:26.426Z,953.86
2018-11-28T10:38:26.326Z,953.74
2018-11-28T10:39:26.219Z,953.81
2018-11-28T10:40:26.130Z,953.82
2018-11-28T10:41:26.009Z,953.68
2018-11-28T10:42:25.907Z,953.72
2018-11-28T10:43:25.800Z,953.71
2018-11-28T10:44:25.697Z,953.73
2018-11-28T10:45:25.667Z,953.70
2018-11-28T10:46:25.488Z,953.72
2018-11-28T10:47:25.384Z,953.66
2018-11-28T10:48:25.285Z,953.68
2018-11-28T10:49:25.174Z,953.70
2018-11-28T10:50:25.090Z,953.65
2018-11-28T10:51:25.231Z,953.74
2018-11-28T10:52:24.864Z,953.71
2018-11-28T10:53:24.757Z,953.81
2018-11-28T10:54:24.653Z,953.75
2018-11-28T10:55:24.569Z,953.91
2018-11-28T10:56:24.445Z,953.89
2018-11-28T10:57:24.342Z,953.88
2018-11-28T10:58:24.237Z,953.76
2018-11-28T10:59:24.133Z,953.87
2018-11-28T11:00:24.047Z,953.82
2018-11-28T11:01:23.930Z,953.79
2018-11-28T11:02:23.817Z,953.80
2018-11-28T11:03:23.724Z,953.79
2018-11-28T11:04:23.611Z,953.85
2018-11-28T11:05:23.521Z,953.89
2018-11-28T11:06:23.406Z,953.85
2018-11-28T11:07:23.299Z,954.14
2018-11-28T11:08:23.195Z,953.79
2018-11-28T11:09:23.088Z,953.84
2018-11-28T11:10:23.006Z,953.87
2018-11-28T11:11:22.882Z,953.87
2018-11-28T11:12:22.777Z,953.80
2018-11-28T11:13:22.671Z,953.75
2018-11-28T11:14:22.565Z,953.76
2018-11-28T11:15:22.479Z,953.84
2018-11-28T11:16:22.359Z,953.83
2018-11-28T11:17:22.253Z,953.77
2018-11-28T11:18:22.151Z,953.88
2018-11-28T11:19:22.045Z,953.83
2018-11-28T11:20:21.958Z,953.82
2018-11-28T11:21:21.841Z,953.83
2018-11-28T11:22:21.733Z,953.73
2018-11-28T11:23:21.676Z,953.76
2018-11-28T11:24:21.525Z,953.73
2018-11-28T11:25:21.437Z,953.78
2018-11-28T11:26:21.317Z,953.76
2018-11-28T11:27:21.214Z,953.75
2018-11-28T11:28:21.109Z,953.68
2018-11-28T11:29:21.005Z,953.69
2018-11-28T11:30:20.917Z,953.71
2018-11-28T11:31:20.798Z,953.70
2018-11-28T11:32:20.692Z,953.70
2018-11-28T11:33:20.587Z,953.68
2018-11-28T11:34:20.484Z,953.68
2018-11-28T11:35:20.427Z,953.76
2018-11-28T11:36:20.276Z,953.78
2018-11-28T11:37:20.175Z,953.80
2018-11-28T11:38:20.065Z,953.78
2018-11-28T11:39:19.962Z,953.66
2018-11-28T11:40:19.879Z,953.72
2018-11-28T11:41:19.754Z,953.68
2018-11-28T11:42:19.852Z,953.68
2018-11-28T11:43:19.650Z,953.74
2018-11-28T11:44:19.456Z,953.86
2018-11-28T11:45:19.355Z,953.71
2018-11-28T11:46:19.233Z,953.73
2018-11-28T11:47:19.130Z,953.72
2018-11-28T11:48:19.025Z,953.68
2018-11-28T11:49:18.922Z,953.66
2018-11-28T11:50:18.833Z,953.65
2018-11-28T11:51:18.714Z,953.80
2018-11-28T11:52:18.612Z,953.63
2018-11-28T11:53:18.509Z,953.68
2018-11-28T11:54:18.419Z,953.57
2018-11-28T11:55:18.302Z,953.59
2018-11-28T11:56:18.210Z,953.57
2018-11-28T11:57:18.093Z,953.67
2018-11-28T11:58:17.988Z,953.70
2018-11-28T11:59:17.886Z,953.65
2018-11-28T12:00:17.785Z,953.66
2018-11-28T12:01:17.728Z,953.70
2018-11-28T12:02:17.576Z,953.70
2018-11-28T12:03:17.474Z,953.78
2018-11-28T12:04:17.374Z,953.77
2018-11-28T12:05:17.272Z,953.69
2018-11-28T12:06:17.181Z,953.72
2018-11-28T12:07:17.062Z,953.69
2018-11-28T12:08:16.959Z,953.69
2018-11-28T12:09:16.858Z,953.61
2018-11-28T12:10:16.756Z,953.64
2018-11-28T12:11:16.666Z,953.53
2018-11-28T12:12:16.550Z,953.59
2018-11-28T12:13:16.446Z,953.55
2018-11-28T12:14:16.341Z,953.58
2018-11-28T12:15:16.243Z,953.66
2018-11-28T12:16:21.402Z,953.60
2018-11-28T12:17:16.035Z,953.57
2018-11-28T12:18:15.931Z,953.68
2018-11-28T12:19:15.832Z,953.64
2018-11-28T12:20:15.727Z,953.57
2018-11-28T12:21:15.638Z,953.57
2018-11-28T12:22:15.537Z,953.58
2018-11-28T12:23:15.419Z,953.72
2018-11-28T12:24:15.323Z,953.66
2018-11-28T12:25:15.222Z,953.67
2018-11-28T12:26:15.128Z,953.67
2018-11-28T12:27:15.010Z,953.65